Time;durP1;ratioP1;P1;durP2;ratioP2;P2;SDS_P1;SDS_P2;PMS_P1;PMS_P2;Temp;Humidity;BMP_temperature;BMP_pressure;BME280_temperature;BME280_humidity;BME280_pressure;Samples;Min_cycle;Max_cycle;Signal;HPM_P1;HPM_P2
2021/12/28 00:00:29;;;;;;;18.50;7.60;;;;;;;3.22;100.00;142898.41;5035817;28;20025;-69
2021/12/28 00:02:57;;;;;;;17.90;7.70;;;;;;;3.25;100.00;142569.91;5041066;28;20025;-69
2021/12/28 00:05:24;;;;;;;19.10;8.73;;;;;;;3.32;100.00;142920.75;5040237;28;20460;-69
2021/12/28 00:07:50;;;;;;;18.63;8.97;;;;;;;3.30;100.00;142917.06;5030848;28;20028;-69
2021/12/28 00:10:18;;;;;;;17.33;8.30;;;;;;;3.27;100.00;142574.88;5034359;28;20047;-69
2021/12/28 00:12:43;;;;;;;19.07;8.80;;;;;;;3.24;100.00;142567.44;5034107;28;20148;-69
2021/12/28 00:18:00;;;;;;;16.17;7.83;;;;;;;3.33;100.00;142255.00;5033992;28;20060;-69
2021/12/28 00:20:31;;;;;;;16.27;6.60;;;;;;;3.40;100.00;142272.28;5033870;28;20473;-69
2021/12/28 00:22:56;;;;;;;18.13;8.10;;;;;;;3.40;100.00;142271.06;5033800;28;20094;-69
2021/12/28 00:25:23;;;;;;;22.57;8.80;;;;;;;3.26;100.00;142236.44;5042120;28;20396;-69
2021/12/28 00:27:49;;;;;;;18.30;8.73;;;;;;;3.22;100.00;142227.81;5046882;28;20016;-69
2021/12/28 00:30:14;;;;;;;21.83;9.73;;;;;;;3.26;100.00;142572.38;5040443;28;20385;-69
2021/12/28 00:32:40;;;;;;;19.60;8.40;;;;;;;3.41;100.00;142944.34;5040503;28;20185;-69
2021/12/28 00:35:06;;;;;;;23.93;9.53;;;;;;;3.33;100.00;142589.72;5034270;28;20198;-69
2021/12/28 00:37:32;;;;;;;20.07;8.63;;;;;;;3.36;100.00;142930.69;5039692;28;20472;-69
2021/12/28 00:39:57;;;;;;;20.17;8.97;;;;;;;3.29;100.00;142914.56;5039189;28;20036;-69
2021/12/28 00:42:23;;;;;;;19.77;8.70;;;;;;;3.35;100.00;142929.44;5039884;28;20063;-70
2021/12/28 00:44:49;;;;;;;21.07;9.33;;;;;;;3.23;100.00;142900.91;5039256;28;20025;-69
2021/12/28 00:47:15;;;;;;;19.53;8.20;;;;;;;3.22;100.00;143231.91;5038282;28;20021;-69
2021/12/28 00:49:40;;;;;;;21.10;8.83;;;;;;;3.22;100.00;143231.91;5040729;28;20106;-69
2021/12/28 00:52:07;;;;;;;20.83;9.07;;;;;;;3.09;100.00;143200.84;5052344;28;20559;-69
2021/12/28 00:54:32;;;;;;;22.17;10.20;;;;;;;3.03;100.00;143519.31;5039338;28;20107;-69
2021/12/28 00:56:58;;;;;;;22.00;10.17;;;;;;;3.06;100.00;143862.75;5039349;28;20108;-69
2021/12/28 00:59:23;;;;;;;22.77;9.30;;;;;;;3.01;100.00;143849.00;5038122;28;20048;-69
2021/12/28 01:01:48;;;;;;;19.60;8.40;;;;;;;2.95;100.00;143835.28;5039206;28;20033;-69
2021/12/28 01:04:14;;;;;;;20.57;9.17;;;;;;;2.97;100.00;144174.94;5038457;28;20047;-69
2021/12/28 01:06:40;;;;;;;20.80;9.47;;;;;;;3.04;100.00;144526.00;5050500;28;20374;-69
2021/12/28 01:09:05;;;;;;;19.93;8.43;;;;;;;3.20;100.00;144566.13;5042166;28;20443;-69
2021/12/28 01:11:31;;;;;;;22.77;9.97;;;;;;;3.23;100.00;144574.91;5040967;28;20109;-69
2021/12/28 01:13:56;;;;;;;22.43;9.27;;;;;;;3.23;100.00;144574.91;5043865;28;20086;-69
2021/12/28 01:16:22;;;;;;;23.97;9.03;;;;;;;3.27;100.00;144583.72;5041057;28;20533;-69
2021/12/28 01:18:47;;;;;;;25.07;11.27;;;;;;;3.27;100.00;144583.72;5043153;28;20597;-69
2021/12/28 01:21:13;;;;;;;23.23;10.20;;;;;;;3.26;100.00;144581.16;5040682;28;20274;-69
2021/12/28 01:23:39;;;;;;;22.50;8.63;;;;;;;3.37;100.00;144608.78;5040257;28;20056;-69
2021/12/28 01:26:04;;;;;;;22.27;9.10;;;;;;;3.36;100.00;144941.25;5038481;28;20239;-69
2021/12/28 01:28:29;;;;;;;18.80;8.83;;;;;;;3.34;100.00;144934.97;5038189;28;20031;-69
2021/12/28 01:30:55;;;;;;;21.27;9.07;;;;;;;3.23;100.00;144573.66;5033566;28;20033;-70
2021/12/28 01:33:20;;;;;;;23.07;9.73;;;;;;;3.27;100.00;144248.84;5045950;28;20020;-70
2021/12/28 01:35:46;;;;;;;23.37;10.50;;;;;;;3.21;100.00;144235.03;5038647;28;20132;-70
2021/12/28 01:38:11;;;;;;;21.40;9.60;;;;;;;3.23;100.00;144573.66;5037517;28;20105;-69
2021/12/28 01:40:40;;;;;;;20.73;8.93;;;;;;;3.23;100.00;144573.66;5043323;28;20432;-70
2021/12/28 01:43:12;;;;;;;21.20;9.70;;;;;;;3.26;100.00;144579.91;5055013;28;20268;-69
2021/12/28 01:45:46;;;;;;;25.17;9.45;;;;;;;3.33;100.00;144933.69;5040114;28;20021;-69
2021/12/28 01:48:20;;;;;;;21.10;8.87;;;;;;;3.30;100.00;145261.13;5029552;28;20033;-69
2021/12/28 01:50:47;;;;;;;20.03;9.27;;;;;;;3.31;100.00;144928.69;5042792;28;20025;-69
2021/12/28 01:53:14;;;;;;;21.63;10.30;;;;;;;3.35;100.00;145273.72;5045585;28;20079;-69
2021/12/28 01:55:42;;;;;;;22.43;9.50;;;;;;;3.40;100.00;145621.41;5038250;28;20278;-69
2021/12/28 01:58:07;;;;;;;22.90;9.60;;;;;;;3.35;100.00;145608.75;5038130;28;20200;-69
2021/12/28 02:00:34;;;;;;;21.30;9.40;;;;;;;3.39;100.00;145618.88;5038789;28;20106;-69
2021/12/28 02:03:05;;;;;;;20.77;9.80;;;;;;;3.38;100.00;145616.31;5037532;28;20021;-69
2021/12/28 02:05:31;;;;;;;19.70;8.85;;;;;;;3.52;100.00;145651.75;5042870;28;20573;-69
2021/12/28 02:07:56;;;;;;;22.80;10.03;;;;;;;3.44;100.00;145296.44;5037756;28;20112;-69
2021/12/28 02:10:21;;;;;;;21.67;8.80;;;;;;;3.46;100.00;145636.56;5044370;28;20029;-69
2021/12/28 02:12:51;;;;;;;20.63;9.07;;;;;;;3.34;100.00;145606.22;5038492;28;20049;-70
2021/12/28 02:15:17;;;;;;;23.30;9.73;;;;;;;3.32;100.00;145601.16;5044445;28;20074;-69
2021/12/28 02:17:42;;;;;;;21.40;9.10;;;;;;;3.32;100.00;145601.16;5043621;28;20039;-69
2021/12/28 02:20:19;;;;;;;19.77;8.30;;;;;;;3.41;100.00;145623.94;5042156;28;20107;-69
2021/12/28 02:22:44;;;;;;;21.87;9.00;;;;;;;3.42;100.00;145625.19;5037749;28;20041;-69
2021/12/28 02:25:12;;;;;;;21.20;8.90;;;;;;;3.43;100.00;145628.97;5039091;28;20041;-69
2021/12/28 02:27:38;;;;;;;18.00;8.77;;;;;;;3.47;100.00;145639.06;5040225;28;20299;-69
2021/12/28 02:30:06;;;;;;;22.50;9.03;;;;;;;3.43;100.00;145628.97;5046076;28;20122;-69
2021/12/28 02:32:32;;;;;;;19.57;8.83;;;;;;;3.38;100.00;145615.06;5040397;28;20413;-69
2021/12/28 02:34:58;;;;;;;22.23;8.90;;;;;;;3.42;100.00;145625.19;5045694;28;20040;-69
2021/12/28 02:37:24;;;;;;;24.87;9.87;;;;;;;3.37;100.00;145278.75;5040265;28;20059;-69
2021/12/28 02:39:50;;;;;;;20.23;9.33;;;;;;;3.29;100.00;145257.34;5039334;28;20287;-69
2021/12/28 02:42:18;;;;;;;19.80;8.83;;;;;;;3.35;100.00;145608.75;5037019;28;20040;-70
2021/12/28 02:44:43;;;;;;;25.03;10.00;;;;;;;3.37;100.00;145948.84;5037901;28;20277;-69
2021/12/28 02:47:09;;;;;;;17.50;7.60;;;;;;;3.34;100.00;145606.22;5038269;28;20029;-69
2021/12/28 02:49:37;;;;;;;27.33;10.50;;;;;;;3.36;100.00;145945.06;5044125;28;20443;-69
2021/12/28 02:52:09;;;;;;;23.40;10.77;;;;;;;3.41;100.00;146292.88;5037661;28;20166;-69
2021/12/28 02:54:36;;;;;;;21.67;9.48;;;;;;;3.51;100.00;146319.53;5050224;28;20440;-69
2021/12/28 02:57:02;;;;;;;21.67;9.10;;;;;;;3.44;100.00;146300.47;5043791;28;20452;-69
2021/12/28 02:59:27;;;;;;;27.13;11.33;;;;;;;3.35;100.00;146277.63;5040941;28;20052;-69
2021/12/28 03:01:53;;;;;;;22.40;9.57;;;;;;;3.45;100.00;146304.28;5041084;28;20516;-69
2021/12/28 03:04:23;;;;;;;23.70;9.37;;;;;;;3.38;100.00;146286.50;5040577;28;20129;-69
2021/12/28 03:06:48;;;;;;;22.63;9.87;;;;;;;3.50;100.00;146316.97;5047834;28;20170;-69
2021/12/28 03:09:15;;;;;;;18.40;8.40;;;;;;;3.57;100.00;146332.22;5040237;28;20249;-69
2021/12/28 03:11:41;;;;;;;22.23;9.07;;;;;;;3.61;100.00;146343.63;5042618;28;20132;-69
2021/12/28 03:14:06;;;;;;;22.43;9.73;;;;;;;3.42;100.00;145961.56;5040920;28;20128;-69
2021/12/28 03:16:32;;;;;;;22.70;9.27;;;;;;;3.34;100.00;145606.22;5041407;28;20048;-69
2021/12/28 03:18:58;;;;;;;23.37;9.97;;;;;;;3.37;100.00;145613.78;5041086;28;20417;-69
2021/12/28 03:21:24;;;;;;;23.90;10.33;;;;;;;3.41;100.00;145959.03;5045385;28;20060;-69
2021/12/28 03:23:51;;;;;;;23.90;9.27;;;;;;;3.37;100.00;145612.53;5045314;28;20115;-69
2021/12/28 03:26:16;;;;;;;27.93;10.97;;;;;;;3.49;100.00;145642.84;5043738;28;20036;-69
2021/12/28 03:28:43;;;;;;;24.37;10.80;;;;;;;3.40;100.00;145621.41;5046109;28;20557;-69
2021/12/28 03:31:12;;;;;;;27.07;11.30;;;;;;;3.36;100.00;145611.25;5045928;28;20093;-69
2021/12/28 03:33:40;;;;;;;25.27;11.83;;;;;;;3.39;100.00;145618.88;5039918;28;20094;-69
2021/12/28 03:36:07;;;;;;;24.30;9.47;;;;;;;3.42;100.00;145625.19;5045822;28;20265;-69
2021/12/28 03:38:33;;;;;;;24.27;8.93;;;;;;;3.53;100.00;145653.00;5053127;28;20033;-69
2021/12/28 03:41:00;;;;;;;23.63;10.00;;;;;;;3.41;100.00;145288.88;5044481;28;20181;-69
2021/12/28 03:43:25;;;;;;;28.20;10.40;;;;;;;3.39;100.00;145283.84;5046921;28;20064;-69
2021/12/28 03:45:51;;;;;;;27.03;10.00;;;;;;;3.38;100.00;145281.28;5042725;28;20029;-69
2021/12/28 03:48:17;;;;;;;22.93;9.80;;;;;;;3.33;100.00;144933.69;5048595;28;20029;-69
2021/12/28 03:50:43;;;;;;;26.73;10.70;;;;;;;3.27;100.00;144918.63;5038756;28;20058;-69
2021/12/28 03:53:09;;;;;;;27.27;10.93;;;;;;;3.26;100.00;144916.06;5047511;28;20126;-68
2021/12/28 03:55:35;;;;;;;27.83;10.80;;;;;;;3.20;100.00;144566.13;5039557;28;20293;-68
2021/12/28 03:58:02;;;;;;;23.63;9.67;;;;;;;3.26;100.00;144581.16;5040201;28;20259;-68
2021/12/28 04:00:31;;;;;;;29.97;11.57;;;;;;;3.22;100.00;144236.28;5044280;28;20488;-68
2021/12/28 04:02:56;;;;;;;28.60;9.97;;;;;;;3.26;100.00;144246.28;5039545;28;20194;-68
2021/12/28 04:05:22;;;;;;;21.50;9.87;;;;;;;3.34;100.00;143931.44;5042367;28;20045;-68
2021/12/28 04:07:48;;;;;;;24.43;10.20;;;;;;;3.42;100.00;143951.44;5042487;28;20064;-68
2021/12/28 04:10:15;;;;;;;25.47;9.83;;;;;;;3.55;100.00;143646.47;5039568;28;20025;-68
2021/12/28 04:12:42;;;;;;;26.43;11.07;;;;;;;3.43;100.00;143284.16;5046082;28;20049;-68
2021/12/28 04:15:11;;;;;;;28.13;10.83;;;;;;;3.40;100.00;142941.88;5046932;28;20260;-68
2021/12/28 04:17:38;;;;;;;28.77;10.47;;;;;;;3.39;100.00;142604.59;5039802;28;20508;-68
2021/12/28 04:20:10;;;;;;;24.27;10.27;;;;;;;3.40;100.00;142607.06;5039775;28;20611;-68
2021/12/28 04:22:36;;;;;;;26.17;9.70;;;;;;;3.37;100.00;142599.59;5039531;28;20112;-68
2021/12/28 04:25:01;;;;;;;20.90;8.87;;;;;;;3.49;100.00;142628.06;5040228;28;20714;-68
2021/12/28 04:27:27;;;;;;;28.83;10.57;;;;;;;3.48;100.00;142626.84;5047733;28;20025;-68
2021/12/28 04:29:52;;;;;;;25.90;10.57;;;;;;;3.37;100.00;142264.84;5039473;28;20045;-68
2021/12/28 04:32:17;;;;;;;28.53;10.57;;;;;;;3.49;100.00;142294.47;5049450;28;20040;-68
2021/12/28 04:34:43;;;;;;;27.20;9.53;;;;;;;3.40;100.00;141937.56;5039904;28;20028;-68
2021/12/28 04:37:08;;;;;;;25.47;9.30;;;;;;;3.32;100.00;141581.94;5040251;28;20110;-68
2021/12/28 04:39:34;;;;;;;25.30;9.70;;;;;;;3.46;100.00;141617.56;5049037;28;20408;-68
2021/12/28 04:41:59;;;;;;;29.83;10.67;;;;;;;3.31;100.00;141246.09;5039574;28;20182;-68
2021/12/28 04:44:25;;;;;;;23.00;9.70;;;;;;;3.37;100.00;141259.56;5043172;28;20051;-68
2021/12/28 04:46:53;;;;;;;24.47;10.50;;;;;;;3.46;100.00;141281.63;5033377;28;20719;-68
2021/12/28 04:49:21;;;;;;;21.43;9.20;;;;;;;3.50;100.00;141292.66;5038918;28;20287;-68
2021/12/28 04:51:47;;;;;;;25.70;9.30;;;;;;;3.52;100.00;140962.88;5039244;28;20469;-68
2021/12/28 04:54:14;;;;;;;22.37;10.03;;;;;;;3.49;100.00;140955.50;5043400;28;20028;-68
2021/12/28 04:56:40;;;;;;;25.03;9.77;;;;;;;3.56;100.00;140970.22;5039889;28;20029;-68
2021/12/28 04:59:06;;;;;;;22.87;9.17;;;;;;;3.60;100.00;140981.22;5039007;28;20093;-68
2021/12/28 05:01:31;;;;;;;24.67;10.07;;;;;;;3.58;100.00;140975.09;5038639;28;20059;-68
2021/12/28 05:03:57;;;;;;;25.77;9.70;;;;;;;3.38;100.00;140594.00;5038671;28;20345;-68
2021/12/28 05:06:22;;;;;;;21.53;8.57;;;;;;;3.37;100.00;140590.34;5038301;28;20579;-68
2021/12/28 05:08:48;;;;;;;21.37;9.37;;;;;;;3.28;100.00;140569.63;5038704;28;20048;-68
2021/12/28 05:11:14;;;;;;;22.53;8.77;;;;;;;3.05;100.00;139844.78;5038596;28;20459;-68
2021/12/28 05:13:40;;;;;;;19.00;8.80;;;;;;;2.86;100.00;139801.06;5047068;28;20042;-68
2021/12/28 05:16:06;;;;;;;22.80;9.37;;;;;;;2.84;100.00;139796.19;5041490;28;20036;-68
2021/12/28 05:18:32;;;;;;;23.27;8.67;;;;;;;2.66;100.00;139752.50;5044950;28;20105;-68
2021/12/28 05:20:57;;;;;;;22.00;8.40;;;;;;;2.62;100.00;139742.78;5041832;28;20186;-68
2021/12/28 05:23:22;;;;;;;18.80;7.53;;;;;;;2.56;100.00;139729.47;5038379;28;20033;-68
2021/12/28 05:25:48;;;;;;;19.07;7.90;;;;;;;2.47;100.00;139707.59;5038095;28;20033;-68
2021/12/28 05:28:14;;;;;;;19.23;7.87;;;;;;;2.46;100.00;139705.19;5041988;28;20033;-68
2021/12/28 05:30:39;;;;;;;19.30;8.30;;;;;;;2.39;100.00;140020.94;5041658;28;20043;-68
2021/12/28 05:33:05;;;;;;;21.27;8.93;;;;;;;2.47;100.00;140040.41;5038332;28;20041;-68
2021/12/28 05:35:31;;;;;;;16.40;6.33;;;;;;;2.50;100.00;139713.66;5038164;28;20218;-68
2021/12/28 05:37:56;;;;;;;26.20;9.50;;;;;;;2.37;100.00;139682.13;5038057;28;20413;-68
2021/12/28 05:40:22;;;;;;;21.33;7.57;;;;;;;2.38;100.00;139684.53;5035460;28;20032;-68
2021/12/28 05:42:47;;;;;;;30.57;10.33;;;;;;;2.26;100.00;139657.84;5038527;28;20501;-68
2021/12/28 05:45:14;;;;;;;23.33;9.00;;;;;;;2.26;100.00;139322.75;5038229;28;20029;-68
2021/12/28 05:47:40;;;;;;;22.00;8.80;;;;;;;2.30;100.00;138998.56;5038161;28;20270;-68
2021/12/28 05:50:08;;;;;;;25.63;9.63;;;;;;;2.34;100.00;139342.16;5038112;28;20469;-69
2021/12/28 05:52:33;;;;;;;30.10;10.50;;;;;;;2.35;100.00;139010.69;5049519;28;20041;-68
2021/12/28 05:54:59;;;;;;;27.77;10.07;;;;;;;2.31;100.00;138334.59;5039171;28;20519;-68
2021/12/28 05:57:24;;;;;;;25.80;10.33;;;;;;;2.37;100.00;138347.78;5037639;28;20147;-68
2021/12/28 05:59:50;;;;;;;28.47;10.70;;;;;;;2.32;100.00;138003.22;5047347;28;20267;-68
2021/12/28 06:02:16;;;;;;;28.03;10.50;;;;;;;2.47;100.00;138037.97;5037235;28;20058;-68
2021/12/28 06:04:41;;;;;;;18.17;6.77;;;;;;;2.56;100.00;137724.50;5038581;28;20099;-68
2021/12/28 06:07:07;;;;;;;22.23;9.63;;;;;;;2.41;100.00;137021.06;5037627;28;20591;-68
2021/12/28 06:09:32;;;;;;;23.40;9.33;;;;;;;2.28;100.00;136658.88;5043425;28;20045;-68
2021/12/28 06:11:57;;;;;;;24.23;9.90;;;;;;;2.23;100.00;136312.28;5037628;28;20028;-68
2021/12/28 06:14:23;;;;;;;22.30;9.70;;;;;;;2.20;100.00;135639.34;5038551;28;20025;-68
2021/12/28 06:16:48;;;;;;;19.10;8.77;;;;;;;2.20;100.00;135972.84;5040695;28;20115;-68
2021/12/28 06:19:14;;;;;;;19.43;8.23;;;;;;;2.20;100.00;135639.34;5037193;28;20033;-68
2021/12/28 06:21:39;;;;;;;21.77;7.87;;;;;;;2.31;100.00;135665.28;5038092;28;20115;-68
2021/12/28 06:24:06;;;;;;;26.53;9.20;;;;;;;2.16;100.00;135296.44;5038707;28;20497;-68
2021/12/28 06:26:33;;;;;;;23.50;9.00;;;;;;;2.22;100.00;135309.41;5038329;28;20110;-68
2021/12/28 06:28:58;;;;;;;20.23;8.43;;;;;;;2.30;100.00;134995.94;5041128;28;20263;-68
2021/12/28 06:31:28;;;;;;;23.60;9.07;;;;;;;2.34;100.00;135005.28;5041776;28;20174;-68
2021/12/28 06:33:58;;;;;;;22.90;8.23;;;;;;;2.29;100.00;134993.53;5042597;28;20036;-68
2021/12/28 06:36:24;;;;;;;18.07;7.90;;;;;;;2.40;100.00;134683.50;5041606;28;20496;-68
2021/12/28 06:38:50;;;;;;;23.70;8.80;;;;;;;2.42;100.00;134354.69;5041631;28;20045;-68
2021/12/28 06:41:16;;;;;;;15.40;6.87;;;;;;;2.52;100.00;134045.69;5051314;28;20146;-68
2021/12/28 06:43:41;;;;;;;24.07;8.73;;;;;;;2.62;100.00;134401.38;5041681;28;20132;-68
2021/12/28 06:46:07;;;;;;;22.40;9.47;;;;;;;2.57;100.00;134056.19;5049293;28;20478;-68
2021/12/28 06:48:32;;;;;;;26.30;10.47;;;;;;;2.67;100.00;134079.50;5041061;28;20106;-69
2021/12/28 06:50:58;;;;;;;24.57;10.50;;;;;;;2.73;100.00;134427.09;5041417;28;20044;-69
2021/12/28 06:53:23;;;;;;;22.57;8.27;;;;;;;2.93;100.00;134473.78;5042572;28;20200;-69
2021/12/28 06:55:48;;;;;;;19.30;9.00;;;;;;;2.97;100.00;134480.78;5041552;28;20032;-69
2021/12/28 06:58:14;;;;;;;22.20;8.77;;;;;;;2.97;100.00;134814.59;5041719;28;20392;-69
2021/12/28 07:00:40;;;;;;;22.83;9.50;;;;;;;3.04;100.00;134831.00;5051388;28;20083;-69
2021/12/28 07:03:06;;;;;;;22.93;9.27;;;;;;;3.03;100.00;134829.84;5040160;28;20532;-69
2021/12/28 07:05:31;;;;;;;26.70;8.60;;;;;;;3.13;100.00;134518.16;5049370;28;20544;-69
2021/12/28 07:07:57;;;;;;;25.53;9.97;;;;;;;3.14;100.00;134855.56;5040931;28;20044;-69
2021/12/28 07:10:22;;;;;;;21.40;8.57;;;;;;;3.20;100.00;134868.44;5048430;28;20032;-69
2021/12/28 07:12:50;;;;;;;20.97;8.97;;;;;;;3.21;100.00;134870.78;5041002;28;20513;-69
2021/12/28 07:15:20;;;;;;;22.90;8.30;;;;;;;3.16;100.00;134859.09;5043464;28;20047;-69
2021/12/28 07:17:45;;;;;;;18.13;8.03;;;;;;;3.20;100.00;135536.41;5050128;28;20033;-69
2021/12/28 07:20:12;;;;;;;20.10;7.50;;;;;;;3.20;100.00;135536.41;5042255;28;20029;-69
2021/12/28 07:22:38;;;;;;;27.07;9.73;;;;;;;3.14;100.00;135856.25;5043080;28;20029;-69
2021/12/28 07:25:04;;;;;;;17.70;6.90;;;;;;;3.26;100.00;135884.56;5040997;28;20025;-69
2021/12/28 07:27:30;;;;;;;22.67;8.53;;;;;;;3.19;100.00;135534.06;5040409;28;20033;-69
2021/12/28 07:29:56;;;;;;;21.87;8.90;;;;;;;3.26;100.00;136218.66;5040503;28;20035;-69
2021/12/28 07:32:21;;;;;;;18.23;7.37;;;;;;;3.26;100.00;136552.78;5040346;28;20738;-69
2021/12/28 07:34:47;;;;;;;19.13;8.07;;;;;;;3.29;100.00;137228.31;5049187;28;20029;-69
2021/12/28 07:37:12;;;;;;;21.20;8.53;;;;;;;3.26;100.00;137221.13;5044391;28;20504;-69
2021/12/28 07:39:38;;;;;;;21.57;8.53;;;;;;;3.19;100.00;136871.53;5049871;28;20043;-69
2021/12/28 07:42:04;;;;;;;20.80;8.33;;;;;;;3.10;100.00;136848.94;5043367;28;20087;-69
2021/12/28 07:44:29;;;;;;;21.23;7.70;;;;;;;3.09;100.00;137180.66;5040532;28;20499;-69
2021/12/28 07:46:55;;;;;;;17.67;7.73;;;;;;;3.01;100.00;137161.56;5044205;28;20089;-69
2021/12/28 07:49:20;;;;;;;16.40;6.77;;;;;;;3.00;100.00;137493.25;5040521;28;20268;-69
2021/12/28 07:51:46;;;;;;;19.33;7.57;;;;;;;3.10;100.00;137851.31;5041075;28;20579;-69
2021/12/28 07:54:12;;;;;;;28.20;8.33;;;;;;;3.03;100.00;138169.91;5040285;28;20087;-69
2021/12/28 07:56:37;;;;;;;20.93;7.40;;;;;;;3.20;100.00;138543.78;5045907;28;20029;-69
2021/12/28 07:59:03;;;;;;;22.13;8.20;;;;;;;3.18;100.00;138873.25;5040168;28;20033;-69
2021/12/28 08:01:31;;;;;;;21.53;7.07;;;;;;;3.19;100.00;139210.00;5040317;28;20025;-69
2021/12/28 08:03:57;;;;;;;18.23;7.53;;;;;;;3.04;100.00;139173.78;5036519;28;20541;-69
2021/12/28 08:06:22;;;;;;;19.33;7.67;;;;;;;3.02;100.00;139503.16;5040113;28;20033;-69
2021/12/28 08:08:48;;;;;;;22.33;7.90;;;;;;;2.99;100.00;139497.13;5039654;28;20048;-69
2021/12/28 08:11:13;;;;;;;22.73;6.97;;;;;;;3.10;100.00;139856.91;5040621;28;20079;-69
2021/12/28 08:13:39;;;;;;;22.03;7.70;;;;;;;3.00;100.00;139832.59;5039229;28;20028;-69
2021/12/28 08:16:05;;;;;;;18.47;8.03;;;;;;;3.14;100.00;140202.22;5039750;28;20032;-69
2021/12/28 08:18:30;;;;;;;22.90;8.53;;;;;;;3.29;100.00;140572.06;5039355;28;20036;-69
2021/12/28 08:20:55;;;;;;;19.20;8.03;;;;;;;3.25;100.00;141231.34;5039473;28;20554;-69
2021/12/28 08:23:21;;;;;;;21.47;8.67;;;;;;;3.28;100.00;141237.53;5031603;28;20416;-69
2021/12/28 08:25:46;;;;;;;21.17;7.90;;;;;;;3.46;100.00;141282.88;5039484;28;20036;-69
2021/12/28 08:28:12;;;;;;;23.53;7.90;;;;;;;3.45;100.00;141613.91;5042110;28;20103;-69
2021/12/28 08:30:38;;;;;;;18.33;7.17;;;;;;;3.53;100.00;142304.41;5043111;28;20047;-69
2021/12/28 08:33:06;;;;;;;28.50;7.47;;;;;;;3.51;100.00;142299.47;5038648;28;20032;-69
2021/12/28 08:35:32;;;;;;;18.57;7.50;;;;;;;3.61;100.00;142656.53;5045862;28;20548;-69
2021/12/28 08:37:58;;;;;;;26.27;8.70;;;;;;;3.48;100.00;142626.84;5039365;28;20059;-69
2021/12/28 08:40:24;;;;;;;16.33;7.27;;;;;;;3.72;100.00;143018.75;5038792;28;20045;-69
2021/12/28 08:42:50;;;;;;;17.53;6.93;;;;;;;3.80;100.00;143373.69;5038792;28;20036;-69
2021/12/28 08:45:15;;;;;;;19.30;8.30;;;;;;;3.81;100.00;143711.28;5039499;28;20523;-69
2021/12/28 08:47:42;;;;;;;15.50;6.33;;;;;;;3.76;100.00;143698.81;5039119;28;20026;-69
2021/12/28 08:50:09;;;;;;;17.30;6.87;;;;;;;3.80;100.00;144043.91;5038855;28;20025;-69
2021/12/28 08:52:36;;;;;;;21.47;6.83;;;;;;;3.86;100.00;144394.06;5038479;28;20259;-69
2021/12/28 08:55:02;;;;;;;16.43;6.73;;;;;;;3.91;100.00;144406.63;5042215;28;20036;-69
2021/12/28 08:57:28;;;;;;;16.13;5.90;;;;;;;4.00;100.00;144763.22;5037108;28;20037;-69
2021/12/28 08:59:53;;;;;;;19.87;7.20;;;;;;;4.06;100.00;144779.53;5038807;28;20185;-69
2021/12/28 09:02:19;;;;;;;14.57;6.27;;;;;;;4.17;100.00;145140.09;5028324;28;20524;-69
2021/12/28 09:04:46;;;;;;;13.20;5.50;;;;;;;4.29;100.00;145505.81;5038541;28;20071;-69
2021/12/28 09:07:12;;;;;;;13.33;5.80;;;;;;;4.34;100.00;145854.00;5038446;28;20268;-69
2021/12/28 09:09:38;;;;;;;14.27;5.77;;;;;;;4.49;100.00;145892.00;5038701;28;20020;-69
2021/12/28 09:12:05;;;;;;;14.93;6.27;;;;;;;4.48;100.00;145889.41;5038743;28;20030;-69
2021/12/28 09:14:32;;;;;;;15.13;5.77;;;;;;;4.67;100.00;145936.25;5033876;28;20395;-69
2021/12/28 09:16:57;;;;;;;24.20;6.97;;;;;;;4.63;100.00;145927.41;5038880;28;20033;-69
2021/12/28 09:19:23;;;;;;;18.10;6.63;;;;;;;4.61;100.00;145922.38;5038310;28;20039;-69
2021/12/28 09:21:48;;;;;;;15.20;5.63;;;;;;;4.60;100.00;145919.84;5038662;28;20278;-69
2021/12/28 09:24:14;;;;;;;16.20;6.00;;;;;;;4.67;100.00;146273.31;5038229;28;20043;-69
2021/12/28 09:26:39;;;;;;;13.73;4.50;;;;;;;4.59;100.00;145917.25;5038634;28;20029;-69
2021/12/28 09:29:05;;;;;;;17.27;5.07;;;;;;;4.39;100.00;145531.06;5039312;28;20485;-69
2021/12/28 09:31:30;;;;;;;19.50;6.20;;;;;;;4.26;100.00;145498.25;5046160;28;20386;-69
2021/12/28 09:33:56;;;;;;;15.07;6.13;;;;;;;4.24;100.00;145828.72;5048940;28;20032;-69
2021/12/28 09:36:21;;;;;;;13.47;5.43;;;;;;;4.22;100.00;146159.19;5045071;28;20611;-69
2021/12/28 09:38:46;;;;;;;15.27;5.77;;;;;;;4.01;100.00;146108.53;5033868;28;20528;-69
2021/12/28 09:41:14;;;;;;;13.70;5.63;;;;;;;3.99;100.00;146438.88;5034005;28;20393;-69
2021/12/28 09:43:40;;;;;;;13.07;4.80;;;;;;;3.87;100.00;146407.13;5032451;28;20550;-69
2021/12/28 09:46:06;;;;;;;15.23;5.63;;;;;;;3.89;100.00;146748.94;5032855;28;20041;-69
2021/12/28 09:48:32;;;;;;;13.77;6.20;;;;;;;3.88;100.00;147081.84;5032915;28;20040;-69
2021/12/28 09:50:58;;;;;;;16.17;6.40;;;;;;;4.05;100.00;147459.53;5034797;28;20102;-69
2021/12/28 09:53:23;;;;;;;18.30;6.33;;;;;;;3.96;100.00;147437.75;5036080;28;20045;-69
2021/12/28 09:55:49;;;;;;;18.03;6.63;;;;;;;4.03;100.00;147455.69;5033513;28;20288;-69
2021/12/28 09:58:14;;;;;;;19.97;6.73;;;;;;;4.18;100.00;147827.19;5034844;28;20256;-69
2021/12/28 10:00:40;;;;;;;17.57;6.30;;;;;;;4.29;100.00;147855.41;5033007;28;20278;-70
2021/12/28 10:03:05;;;;;;;22.47;6.63;;;;;;;4.37;100.00;147875.94;5043536;28;20436;-68
2021/12/28 10:05:33;;;;;;;19.13;5.90;;;;;;;4.40;100.00;147884.88;5041105;28;20087;-68
2021/12/28 10:08:01;;;;;;;18.33;7.17;;;;;;;4.68;100.00;147954.13;5036373;28;20111;-68
2021/12/28 10:10:32;;;;;;;15.63;6.03;;;;;;;4.95;100.00;148023.41;5037496;28;20336;-68
2021/12/28 10:13:03;;;;;;;20.13;5.50;;;;;;;5.12;100.00;148065.78;5037959;28;20497;-68
2021/12/28 10:15:32;;;;;;;14.52;6.20;;;;;;;5.06;100.00;148050.34;5040329;28;20116;-69
2021/12/28 10:18:01;;;;;;;16.00;5.67;;;;;;;5.14;100.00;147734.66;5028782;28;20146;-68
2021/12/28 10:20:37;;;;;;;15.20;5.03;;;;;;;5.09;100.00;147721.88;5040659;28;20036;-68
2021/12/28 10:23:13;;;;;;;14.43;5.63;;;;;;;5.13;100.00;147730.81;5033032;28;20036;-70
2021/12/28 10:25:48;;;;;;;16.63;5.80;;;;;;;5.22;100.00;147418.91;5036666;28;20620;-70
2021/12/28 10:28:16;;;;;;;19.60;5.80;;;;;;;5.37;100.00;147454.69;5047835;28;20439;-70
2021/12/28 10:30:43;;;;;;;14.73;5.10;;;;;;;5.43;100.00;147469.97;5041032;28;20067;-70
2021/12/28 10:33:13;;;;;;;16.73;6.00;;;;;;;5.47;100.00;147481.50;5046824;28;20388;-70
2021/12/28 10:36:07;;;;;;;17.53;5.87;;;;;;;5.56;100.00;147166.78;5040791;28;20290;-70
2021/12/28 10:38:36;;;;;;;13.13;5.70;;;;;;;5.52;100.00;147157.88;5036680;28;20036;-70
2021/12/28 10:41:10;;;;;;;16.07;5.67;;;;;;;5.58;100.00;147171.94;5043494;28;20032;-70
2021/12/28 10:43:38;;;;;;;17.90;4.80;;;;;;;5.58;100.00;147173.19;5036135;28;20162;-70
2021/12/28 10:46:13;;;;;;;14.37;5.00;;;;;;;5.58;100.00;147171.94;5037019;28;20033;-70
2021/12/28 10:48:46;;;;;;;11.80;5.07;;;;;;;5.55;100.00;147164.25;5037568;28;20477;-70
2021/12/28 10:51:15;;;;;;;13.37;5.23;;;;;;;5.56;100.00;147168.06;5046943;28;20044;-70
2021/12/28 10:54:06;;;;;;;12.93;4.53;;;;;;;5.64;100.00;147187.22;5036009;28;20029;-70
2021/12/28 10:56:54;;;;;;;11.43;4.67;;;;;;;5.78;100.00;147559.44;5035048;28;20056;-70
2021/12/28 10:59:26;;;;;;;14.47;5.20;;;;;;;5.94;100.00;147597.88;5043385;28;20061;-70
2021/12/28 11:01:52;;;;;;;10.68;4.75;;;;;;;6.03;100.00;147284.16;5039284;28;20032;-68
2021/12/28 11:04:18;;;;;;;12.90;5.47;;;;;;;6.31;100.00;147355.63;5044988;28;20302;-68
2021/12/28 11:06:52;;;;;;;11.20;5.00;;;;;;;6.54;100.00;146401.03;5040756;28;20033;-68
2021/12/28 11:09:21;;;;;;;11.27;4.30;;;;;;;6.79;100.00;144106.19;5037422;28;20400;-68
2021/12/28 11:11:47;;;;;;;15.00;5.13;;;;;;;6.81;100.00;139061.66;5042012;28;20036;-68
2021/12/28 11:14:17;;;;;;;9.27;4.20;;;;;;;6.96;100.00;79157.97;5047993;28;20378;-68
2021/12/28 11:16:52;;;;;;;9.70;4.00;;;;;;;-145.18;100.00;60484.78;5042889;28;20452;-68